Time;durP1;ratioP1;P1;durP2;ratioP2;P2;SDS_P1;SDS_P2;PMS_P1;PMS_P2;Temp;Humidity;BMP_temperature;BMP_pressure;BME280_temperature;BME280_humidity;BME280_pressure;Samples;Min_cycle;Max_cycle;Signal;HPM_P1;HPM_P2
2022/10/07 00:01:11;;;;;;;3.13;1.60;;;;;;;;;;4971373;28;20425;-68
2022/10/07 00:03:38;;;;;;;12.40;1.70;;;;;;;;;;4970886;28;20442;-68
2022/10/07 00:06:20;;;;;;;1.97;1.33;;;;;;;;;;4972318;28;20426;-68
2022/10/07 00:08:50;;;;;;;3.60;1.50;;;;;;;;;;4970553;28;20494;-68
2022/10/07 00:11:16;;;;;;;2.93;1.60;;;;;;;;;;4971783;28;20481;-68
2022/10/07 00:13:43;;;;;;;3.23;1.57;;;;;;;;;;4971232;28;20938;-69
2022/10/07 00:16:11;;;;;;;6.43;2.00;;;;;;;;;;4971542;28;20453;-69
2022/10/07 00:18:39;;;;;;;5.63;1.50;;;;;;;;;;4970692;28;20508;-69
2022/10/07 00:21:06;;;;;;;1.70;1.60;;;;;;;;;;4970777;28;21003;-68
2022/10/07 00:23:32;;;;;;;2.87;1.37;;;;;;;;;;4970812;28;20445;-69
2022/10/07 00:26:02;;;;;;;7.93;1.83;;;;;;;;;;4969625;28;20464;-68
2022/10/07 00:28:29;;;;;;;3.63;1.60;;;;;;;;;;4970595;28;20481;-68
2022/10/07 00:31:14;;;;;;;6.07;2.00;;;;;;;;;;4971264;28;20450;-69
2022/10/07 00:33:41;;;;;;;4.23;1.60;;;;;;;;;;4971101;28;21020;-68
2022/10/07 00:36:08;;;;;;;7.07;1.60;;;;;;;;;;4971546;28;20438;-69
2022/10/07 00:38:34;;;;;;;8.10;1.80;;;;;;;;;;4971102;28;20472;-68
2022/10/07 00:41:00;;;;;;;2.50;1.20;;;;;;;;;;4971771;28;20521;-68
2022/10/07 00:43:31;;;;;;;4.77;1.80;;;;;;;;;;4969697;28;20438;-69
2022/10/07 00:45:59;;;;;;;11.13;1.80;;;;;;;;;;4970887;28;20953;-69
2022/10/07 00:48:30;;;;;;;2.43;1.43;;;;;;;;;;4970743;28;20482;-70
2022/10/07 00:50:58;;;;;;;3.30;1.33;;;;;;;;;;4971756;28;20426;-69
2022/10/07 00:53:25;;;;;;;4.77;1.90;;;;;;;;;;4970750;28;20902;-68
2022/10/07 00:55:51;;;;;;;5.20;1.40;;;;;;;;;;4971164;28;20528;-68
2022/10/07 00:58:18;;;;;;;2.80;1.43;;;;;;;;;;4970712;28;20561;-68
2022/10/07 01:00:44;;;;;;;3.43;1.73;;;;;;;;;;4970952;28;20454;-68
2022/10/07 01:03:10;;;;;;;13.50;2.20;;;;;;;;;;4969781;28;20440;-68
2022/10/07 01:05:36;;;;;;;6.60;1.80;;;;;;;;;;4971461;28;20546;-68
2022/10/07 01:08:02;;;;;;;4.67;1.63;;;;;;;;;;4970050;28;20560;-68
2022/10/07 01:10:32;;;;;;;1.90;1.10;;;;;;;;;;4971143;28;20446;-68
2022/10/07 01:13:04;;;;;;;5.23;1.33;;;;;;;;;;4968790;28;20426;-68
2022/10/07 01:15:42;;;;;;;2.23;1.47;;;;;;;;;;4970454;28;20832;-68
2022/10/07 01:18:08;;;;;;;2.27;1.50;;;;;;;;;;4970963;28;20453;-68
2022/10/07 01:20:36;;;;;;;5.50;1.60;;;;;;;;;;4970745;28;20434;-70
2022/10/07 01:23:05;;;;;;;2.50;1.60;;;;;;;;;;4969590;28;20449;-69
2022/10/07 01:25:54;;;;;;;3.17;1.70;;;;;;;;;;4970805;28;20481;-68
2022/10/07 01:28:40;;;;;;;7.03;1.63;;;;;;;;;;4970788;28;20509;-68
2022/10/07 01:31:10;;;;;;;2.47;1.47;;;;;;;;;;4970406;28;20433;-68
2022/10/07 01:33:37;;;;;;;8.10;2.20;;;;;;;;;;4969719;28;20434;-69
2022/10/07 01:36:07;;;;;;;5.87;2.13;;;;;;;;;;4970432;28;20442;-69
2022/10/07 01:38:34;;;;;;;5.43;1.57;;;;;;;;;;4970466;28;20488;-69
2022/10/07 01:41:04;;;;;;;8.80;3.67;;;;;;;;;;4970420;28;20508;-69
2022/10/07 01:43:31;;;;;;;3.40;1.63;;;;;;;;;;4965517;28;20489;-68
2022/10/07 01:45:58;;;;;;;3.03;1.77;;;;;;;;;;4962937;28;20966;-69
2022/10/07 01:48:24;;;;;;;2.23;1.70;;;;;;;;;;4965268;28;20489;-70
2022/10/07 01:50:51;;;;;;;15.50;2.50;;;;;;;;;;4965747;28;20441;-70
2022/10/07 01:53:35;;;;;;;4.83;2.30;;;;;;;;;;4965011;28;20461;-68
2022/10/07 01:56:08;;;;;;;1.73;1.60;;;;;;;;;;4964902;28;20946;-71
2022/10/07 01:58:53;;;;;;;2.80;1.70;;;;;;;;;;4967335;28;20484;-68
2022/10/07 02:01:22;;;;;;;5.33;2.13;;;;;;;;;;4963214;28;20544;-68
2022/10/07 02:03:54;;;;;;;4.07;1.60;;;;;;;;;;4964850;28;20811;-69
2022/10/07 02:06:41;;;;;;;5.33;1.80;;;;;;;;;;4965805;28;20465;-69
2022/10/07 02:09:12;;;;;;;3.40;1.87;;;;;;;;;;4951940;28;21041;-68
2022/10/07 02:11:40;;;;;;;1.23;1.23;;;;;;;;;;4965094;28;21800;-69
2022/10/07 02:14:10;;;;;;;8.33;4.00;;;;;;;;;;4963956;28;20451;-70
2022/10/07 02:16:43;;;;;;;5.77;2.30;;;;;;;;;;4965789;28;21366;-68
2022/10/07 02:19:17;;;;;;;2.73;1.53;;;;;;;;;;4965471;28;20454;-69
2022/10/07 02:21:45;;;;;;;6.57;2.53;;;;;;;;;;4962622;28;20440;-68
2022/10/07 02:24:11;;;;;;;5.00;2.50;;;;;;;;;;4965892;28;20446;-69
2022/10/07 02:26:38;;;;;;;4.00;1.47;;;;;;;;;;4968871;28;20446;-68
2022/10/07 02:29:06;;;;;;;5.13;1.27;;;;;;;;;;4968783;28;20532;-68
2022/10/07 02:31:33;;;;;;;6.30;2.00;;;;;;;;;;4967788;28;21158;-68
2022/10/07 02:34:00;;;;;;;9.13;2.30;;;;;;;;;;4969239;28;20444;-69
2022/10/07 02:36:29;;;;;;;1.70;1.50;;;;;;;;;;4968601;28;20433;-68
2022/10/07 02:38:57;;;;;;;10.13;2.00;;;;;;;;;;4965423;28;20887;-69
2022/10/07 02:41:31;;;;;;;3.73;1.80;;;;;;;;;;4968890;28;20545;-70
2022/10/07 02:44:03;;;;;;;6.30;1.40;;;;;;;;;;4968469;28;20437;-70
2022/10/07 02:46:31;;;;;;;4.20;1.30;;;;;;;;;;4968462;28;20442;-69
2022/10/07 02:49:00;;;;;;;3.33;1.40;;;;;;;;;;4967987;28;21105;-70
2022/10/07 02:51:32;;;;;;;4.20;1.60;;;;;;;;;;4968215;28;20536;-69
2022/10/07 02:54:01;;;;;;;6.10;1.33;;;;;;;;;;4967527;28;20481;-69
2022/10/07 02:56:28;;;;;;;2.93;1.53;;;;;;;;;;4967974;28;20477;-70
2022/10/07 02:58:54;;;;;;;3.87;1.50;;;;;;;;;;4967956;28;20448;-70
2022/10/07 03:01:23;;;;;;;11.30;1.70;;;;;;;;;;4968246;28;20871;-68
2022/10/07 03:03:49;;;;;;;1.83;1.37;;;;;;;;;;4988847;28;20450;-69
2022/10/07 03:06:18;;;;;;;3.70;1.80;;;;;;;;;;4973002;28;20441;-69
2022/10/07 03:08:46;;;;;;;2.80;1.50;;;;;;;;;;4972780;28;20501;-69
2022/10/07 03:11:12;;;;;;;4.70;2.37;;;;;;;;;;4973583;28;20426;-70
2022/10/07 03:13:38;;;;;;;3.90;1.80;;;;;;;;;;4970870;28;20796;-68
2022/10/07 03:16:04;;;;;;;4.73;1.73;;;;;;;;;;4972588;28;20449;-68
2022/10/07 03:18:30;;;;;;;2.10;1.70;;;;;;;;;;4972825;28;20441;-70
2022/10/07 03:20:58;;;;;;;3.70;1.50;;;;;;;;;;4971916;28;20516;-69
2022/10/07 03:23:25;;;;;;;1.27;0.90;;;;;;;;;;4970888;28;20562;-69
2022/10/07 03:25:52;;;;;;;3.60;1.60;;;;;;;;;;4972936;28;20413;-68
2022/10/07 03:28:21;;;;;;;12.23;2.10;;;;;;;;;;4972772;28;20473;-68
2022/10/07 03:30:48;;;;;;;8.83;1.90;;;;;;;;;;4972279;28;20445;-69
2022/10/07 03:33:14;;;;;;;4.87;1.67;;;;;;;;;;4971767;28;20426;-69
2022/10/07 03:35:40;;;;;;;2.83;1.60;;;;;;;;;;4971510;28;20492;-69
2022/10/07 03:38:07;;;;;;;5.90;1.83;;;;;;;;;;4972442;28;20469;-69
2022/10/07 03:40:34;;;;;;;3.03;1.40;;;;;;;;;;4972776;28;20438;-69
2022/10/07 03:43:00;;;;;;;3.50;1.53;;;;;;;;;;4972398;28;20429;-69
2022/10/07 03:45:26;;;;;;;7.67;1.97;;;;;;;;;;4971759;28;20875;-69
2022/10/07 03:47:52;;;;;;;1.53;1.17;;;;;;;;;;4970636;28;20559;-68
2022/10/07 03:50:18;;;;;;;1.90;1.27;;;;;;;;;;4972620;28;20794;-68
2022/10/07 03:52:44;;;;;;;2.37;1.60;;;;;;;;;;4972010;28;20446;-69
2022/10/07 03:55:11;;;;;;;1.80;1.70;;;;;;;;;;4972295;28;20433;-68
2022/10/07 03:57:49;;;;;;;1.73;1.40;;;;;;;;;;4972012;28;20449;-69
2022/10/07 04:00:15;;;;;;;5.13;1.90;;;;;;;;;;4971660;28;20433;-68
2022/10/07 04:02:41;;;;;;;9.03;1.33;;;;;;;;;;4971508;28;20948;-69
2022/10/07 04:05:07;;;;;;;7.20;1.40;;;;;;;;;;4971838;28;20446;-69
2022/10/07 04:07:33;;;;;;;4.30;1.93;;;;;;;;;;4972121;28;20462;-68
2022/10/07 04:09:59;;;;;;;1.87;1.30;;;;;;;;;;4971895;28;20528;-68
2022/10/07 04:12:25;;;;;;;9.43;2.37;;;;;;;;;;4971199;28;20461;-69
2022/10/07 04:14:51;;;;;;;5.33;2.47;;;;;;;;;;4970105;28;20477;-68
2022/10/07 04:17:17;;;;;;;10.97;2.00;;;;;;;;;;4971820;28;20426;-68
2022/10/07 04:19:44;;;;;;;7.50;2.07;;;;;;;;;;4970200;28;20497;-68
2022/10/07 04:22:10;;;;;;;6.83;1.63;;;;;;;;;;4969550;28;20438;-68
2022/10/07 04:24:36;;;;;;;11.07;1.33;;;;;;;;;;4971578;28;20445;-69
2022/10/07 04:27:05;;;;;;;8.40;1.50;;;;;;;;;;4971846;28;20442;-69
2022/10/07 04:29:31;;;;;;;9.83;1.53;;;;;;;;;;4969962;28;20489;-69
2022/10/07 04:31:57;;;;;;;8.20;1.60;;;;;;;;;;4971291;28;20918;-68
2022/10/07 04:34:24;;;;;;;6.30;2.30;;;;;;;;;;4971586;28;20434;-68
2022/10/07 04:36:51;;;;;;;2.63;1.70;;;;;;;;;;4970683;28;20473;-69
2022/10/07 04:39:17;;;;;;;6.03;1.87;;;;;;;;;;4971634;28;20443;-68
2022/10/07 04:41:43;;;;;;;6.00;2.40;;;;;;;;;;4971419;28;20426;-68
2022/10/07 04:44:09;;;;;;;4.83;1.80;;;;;;;;;;4970453;28;20511;-69
2022/10/07 04:46:35;;;;;;;4.53;1.70;;;;;;;;;;4971486;28;20942;-69
2022/10/07 04:49:01;;;;;;;4.03;1.97;;;;;;;;;;4970905;28;20946;-68
2022/10/07 04:51:29;;;;;;;14.67;3.77;;;;;;;;;;4963933;28;20442;-68
2022/10/07 04:53:55;;;;;;;2.63;2.43;;;;;;;;;;4840245;28;20898;-69
2022/10/07 04:56:22;;;;;;;8.53;2.10;;;;;;;;;;4951056;28;20442;-68
2022/10/07 04:58:48;;;;;;;6.47;1.77;;;;;;;;;;4948582;28;20442;-68
2022/10/07 05:01:15;;;;;;;4.13;1.50;;;;;;;;;;4950279;28;20451;-68
2022/10/07 05:03:41;;;;;;;4.77;1.80;;;;;;;;;;4950611;28;20489;-68
2022/10/07 05:06:07;;;;;;;4.43;2.20;;;;;;;;;;4951544;28;20778;-68
2022/10/07 05:08:33;;;;;;;6.50;2.90;;;;;;;;;;4949246;28;20483;-68
2022/10/07 05:11:00;;;;;;;3.27;1.67;;;;;;;;;;4949840;28;20431;-68
2022/10/07 05:13:27;;;;;;;4.90;1.70;;;;;;;;;;4950277;28;20456;-68
2022/10/07 05:15:54;;;;;;;12.53;1.87;;;;;;;;;;4950995;28;20443;-69
2022/10/07 05:18:21;;;;;;;13.97;4.70;;;;;;;;;;4950124;28;20648;-68
2022/10/07 05:20:48;;;;;;;4.90;2.30;;;;;;;;;;4951527;28;20431;-68
2022/10/07 05:23:15;;;;;;;4.87;2.53;;;;;;;;;;4950068;28;20822;-69
2022/10/07 05:25:42;;;;;;;2.13;1.90;;;;;;;;;;4950618;28;20439;-69
2022/10/07 05:28:08;;;;;;;2.30;2.10;;;;;;;;;;4950111;28;20446;-68
2022/10/07 05:30:34;;;;;;;6.37;1.70;;;;;;;;;;4950590;28;20494;-69
2022/10/07 05:33:01;;;;;;;3.30;3.00;;;;;;;;;;4950020;28;20529;-68
2022/10/07 05:35:27;;;;;;;6.00;2.67;;;;;;;;;;4950890;28;20446;-68
2022/10/07 05:37:53;;;;;;;6.37;4.30;;;;;;;;;;4947957;28;20816;-68
2022/10/07 05:40:20;;;;;;;3.43;3.13;;;;;;;;;;4949518;28;20510;-68
2022/10/07 05:42:46;;;;;;;4.50;4.20;;;;;;;;;;4949218;28;20450;-69
2022/10/07 05:45:12;;;;;;;6.53;4.60;;;;;;;;;;4949993;28;20443;-69
2022/10/07 05:47:38;;;;;;;5.10;4.43;;;;;;;;;;4948801;28;20435;-68
2022/10/07 05:50:05;;;;;;;6.13;2.70;;;;;;;;;;4949111;28;20493;-68
2022/10/07 05:52:31;;;;;;;2.50;2.30;;;;;;;;;;4949080;28;20446;-69
2022/10/07 05:54:57;;;;;;;4.57;2.43;;;;;;;;;;4947268;28;20447;-68
2022/10/07 05:57:23;;;;;;;6.97;2.07;;;;;;;;;;4949661;28;20967;-69
2022/10/07 05:59:50;;;;;;;2.10;2.00;;;;;;;;;;4952063;28;20483;-68
2022/10/07 06:02:17;;;;;;;5.17;2.10;;;;;;;;;;4951989;28;20441;-69
2022/10/07 06:04:43;;;;;;;8.90;3.10;;;;;;;;;;4954054;28;20533;-68
2022/10/07 06:07:10;;;;;;;11.00;2.93;;;;;;;;;;4953965;28;20466;-68
2022/10/07 06:15:08;;;;;;;3.47;2.57;;;;;;;;;;4953416;28;20454;-68
2022/10/07 06:17:34;;;;;;;16.47;1.87;;;;;;;;;;4952763;28;20435;-69
2022/10/07 06:20:00;;;;;;;7.23;1.77;;;;;;;;;;4953300;28;20449;-69
2022/10/07 06:22:26;;;;;;;7.13;2.50;;;;;;;;;;4953018;28;20442;-68
2022/10/07 06:24:56;;;;;;;7.57;3.00;;;;;;;;;;4953763;28;20469;-69
2022/10/07 06:27:23;;;;;;;3.57;3.37;;;;;;;;;;4954768;28;20439;-71
2022/10/07 06:29:49;;;;;;;9.20;2.00;;;;;;;;;;4953343;28;20482;-71
2022/10/07 06:32:15;;;;;;;3.80;1.70;;;;;;;;;;4953987;28;20434;-71
2022/10/07 06:34:41;;;;;;;1.73;1.63;;;;;;;;;;4954035;28;20830;-70
2022/10/07 06:37:07;;;;;;;2.83;1.80;;;;;;;;;;4952147;28;20940;-71
2022/10/07 06:39:33;;;;;;;2.17;2.03;;;;;;;;;;4949606;28;20466;-69
2022/10/07 06:41:59;;;;;;;1.90;1.80;;;;;;;;;;4952322;28;20594;-69
2022/10/07 06:44:27;;;;;;;1.80;1.70;;;;;;;;;;4952883;28;20935;-69
2022/10/07 06:46:53;;;;;;;1.80;1.70;;;;;;;;;;4954065;28;20438;-69
2022/10/07 06:49:19;;;;;;;2.60;1.70;;;;;;;;;;4951816;28;20995;-70
2022/10/07 06:51:45;;;;;;;4.20;3.27;;;;;;;;;;4953965;28;20443;-70
2022/10/07 06:54:11;;;;;;;3.87;3.60;;;;;;;;;;4951647;28;20447;-69
2022/10/07 06:56:38;;;;;;;3.60;2.10;;;;;;;;;;4952008;28;20439;-69
2022/10/07 06:59:04;;;;;;;3.27;2.50;;;;;;;;;;4952710;28;20439;-69
2022/10/07 07:01:30;;;;;;;5.83;3.63;;;;;;;;;;4951481;28;20477;-70
2022/10/07 07:03:56;;;;;;;4.13;3.83;;;;;;;;;;4953077;28;20875;-69
2022/10/07 07:06:22;;;;;;;7.90;5.00;;;;;;;;;;4954017;28;20431;-69
2022/10/07 07:08:49;;;;;;;9.47;4.30;;;;;;;;;;4953465;28;20502;-68
2022/10/07 07:14:01;;;;;;;8.50;4.93;;;;;;;;;;4952068;28;20477;-68
2022/10/07 07:16:27;;;;;;;8.00;3.90;;;;;;;;;;4952830;28;20515;-70
2022/10/07 07:18:54;;;;;;;5.93;3.40;;;;;;;;;;4953384;28;20435;-71
2022/10/07 07:21:20;;;;;;;8.90;3.20;;;;;;;;;;4952282;28;20443;-68
2022/10/07 07:23:46;;;;;;;5.20;2.63;;;;;;;;;;4950810;28;20431;-68
2022/10/07 07:26:12;;;;;;;3.90;2.47;;;;;;;;;;4953437;28;20497;-68
2022/10/07 07:28:38;;;;;;;6.10;2.80;;;;;;;;;;4952279;28;20490;-70
2022/10/07 07:31:09;;;;;;;12.57;3.77;;;;;;;;;;4953234;28;20526;-69
2022/10/07 07:33:39;;;;;;;11.13;3.20;;;;;;;;;;4953018;28;20490;-69
2022/10/07 07:36:15;;;;;;;11.83;3.00;;;;;;;;;;4951614;28;20466;-71
2022/10/07 07:38:44;;;;;;;11.10;2.60;;;;;;;;;;4951610;28;21532;-68
2022/10/07 07:41:10;;;;;;;9.27;3.17;;;;;;;;;;4952547;28;20455;-69
2022/10/07 07:43:36;;;;;;;7.17;2.77;;;;;;;;;;4952499;28;20454;-69
2022/10/07 07:46:03;;;;;;;5.70;2.60;;;;;;;;;;4952641;28;20446;-69
2022/10/07 07:48:30;;;;;;;7.87;2.73;;;;;;;;;;4951516;28;20514;-70
2022/10/07 07:50:56;;;;;;;3.57;2.83;;;;;;;;;;4951752;28;20469;-70
2022/10/07 07:53:22;;;;;;;11.90;3.27;;;;;;;;;;4951474;28;20439;-70
2022/10/07 07:55:52;;;;;;;12.17;2.67;;;;;;;;;;4952934;28;20506;-69
2022/10/07 07:58:17;;;;;;;6.90;2.50;;;;;;;;;;4951777;28;20431;-69
2022/10/07 08:00:45;;;;;;;2.90;2.70;;;;;;;;;;4952166;28;20543;-69
2022/10/07 08:03:10;;;;;;;4.27;2.40;;;;;;;;;;4952701;28;20443;-70
2022/10/07 08:05:36;;;;;;;8.27;2.50;;;;;;;;;;4953000;28;20494;-69
2022/10/07 08:08:02;;;;;;;5.07;3.17;;;;;;;;;;4952833;28;20462;-71
2022/10/07 08:10:29;;;;;;;4.90;2.40;;;;;;;;;;4950636;28;20461;-70
2022/10/07 08:12:55;;;;;;;9.70;2.50;;;;;;;;;;4953130;28;20459;-69
2022/10/07 08:15:21;;;;;;;8.83;2.73;;;;;;;;;;4952537;28;20430;-69
2022/10/07 08:17:48;;;;;;;5.30;2.10;;;;;;;;;;4952751;28;20492;-68
2022/10/07 08:20:15;;;;;;;2.67;2.57;;;;;;;;;;4952203;28;20447;-70
2022/10/07 08:22:44;;;;;;;2.17;1.87;;;;;;;;;;4952510;28;20423;-69
2022/10/07 08:25:10;;;;;;;6.47;2.43;;;;;;;;;;4952693;28;20434;-70
2022/10/07 08:27:36;;;;;;;4.53;2.43;;;;;;;;;;4952620;28;20434;-70
2022/10/07 08:30:02;;;;;;;6.73;2.83;;;;;;;;;;4951266;28;20482;-70
2022/10/07 08:32:29;;;;;;;7.60;2.80;;;;;;;;;;4952633;28;20419;-71
2022/10/07 08:34:55;;;;;;;4.03;2.33;;;;;;;;;;4952314;28;20427;-69
2022/10/07 08:37:21;;;;;;;5.70;2.30;;;;;;;;;;4952498;28;20473;-69
2022/10/07 08:39:47;;;;;;;4.97;2.67;;;;;;;;;;4951674;28;20443;-69
2022/10/07 08:42:21;;;;;;;2.87;2.37;;;;;;;;;;4951299;28;20431;-68
2022/10/07 08:44:49;;;;;;;6.03;2.60;;;;;;;;;;4950572;28;20445;-69
2022/10/07 08:47:33;;;;;;;7.03;2.07;;;;;;;;;;4952439;28;20807;-69
2022/10/07 08:50:06;;;;;;;14.17;2.53;;;;;;;;;;4951777;28;20478;-70
2022/10/07 08:52:38;;;;;;;6.47;2.40;;;;;;;;;;4951788;28;20955;-68
2022/10/07 08:55:23;;;;;;;4.63;2.83;;;;;;;;;;4950580;28;20450;-70
2022/10/07 08:58:03;;;;;;;2.50;2.40;;;;;;;;;;4952095;28;20434;-69
2022/10/07 09:00:33;;;;;;;10.80;2.97;;;;;;;;;;4950274;28;20473;-68
2022/10/07 09:02:59;;;;;;;4.93;2.47;;;;;;;;;;4951139;28;20557;-69
2022/10/07 09:05:27;;;;;;;3.13;2.53;;;;;;;;;;4952103;28;21058;-69
2022/10/07 09:07:56;;;;;;;5.03;1.93;;;;;;;;;;4952209;28;20489;-69
2022/10/07 09:10:34;;;;;;;8.57;2.57;;;;;;;;;;4951688;28;20581;-69
2022/10/07 09:13:10;;;;;;;2.80;2.00;;;;;;;;;;4950474;28;20431;-69
2022/10/07 09:15:48;;;;;;;4.70;2.30;;;;;;;;;;4951797;28;20835;-70
2022/10/07 09:18:21;;;;;;;9.83;2.40;;;;;;;;;;4947768;28;20434;-69
2022/10/07 09:20:52;;;;;;;2.67;2.57;;;;;;;;;;4950835;28;20447;-68
2022/10/07 09:23:20;;;;;;;5.50;2.80;;;;;;;;;;4950028;28;20434;-69
2022/10/07 09:25:46;;;;;;;2.60;2.27;;;;;;;;;;4951134;28;20427;-69
2022/10/07 09:28:14;;;;;;;4.20;2.50;;;;;;;;;;4950909;28;20465;-68
2022/10/07 09:30:41;;;;;;;2.60;2.40;;;;;;;;;;4950830;28;20443;-69
2022/10/07 09:33:15;;;;;;;5.20;2.70;;;;;;;;;;4950780;28;20847;-69
2022/10/07 09:35:44;;;;;;;5.27;2.57;;;;;;;;;;4949627;28;20442;-70
2022/10/07 09:38:10;;;;;;;3.97;3.50;;;;;;;;;;4951096;28;20487;-69
2022/10/07 09:41:13;;;;;;;25.47;10.87;;;;;;;;;;4950664;28;20463;-70
2022/10/07 09:43:24;;;;;;;7.60;4.17;;;;;;;;;;4950617;28;20414;-68
2022/10/07 09:45:50;;;;;;;4.23;2.20;;;;;;;;;;4950550;28;20883;-69
2022/10/07 09:48:18;;;;;;;12.67;7.30;;;;;;;;;;4951471;28;20498;-68
2022/10/07 09:50:45;;;;;;;12.80;2.90;;;;;;;;;;4951079;28;20541;-68
2022/10/07 09:53:18;;;;;;;2.33;2.00;;;;;;;;;;4949890;28;20431;-69
2022/10/07 09:55:45;;;;;;;14.27;2.27;;;;;;;;;;4950997;28;20442;-70
2022/10/07 09:58:17;;;;;;;12.77;3.50;;;;;;;;;;4951285;28;20577;-69
2022/10/07 10:00:44;;;;;;;2.03;2.03;;;;;;;;;;4951071;28;20442;-70
2022/10/07 10:03:10;;;;;;;1.47;1.33;;;;;;;;;;4951412;28;20733;-68
2022/10/07 10:05:38;;;;;;;4.30;2.50;;;;;;;;;;4950771;28;20529;-69
2022/10/07 10:08:20;;;;;;;5.60;1.53;;;;;;;;;;4951004;28;20530;-69
2022/10/07 10:10:51;;;;;;;3.53;2.20;;;;;;;;;;4949318;28;20455;-69
2022/10/07 10:13:26;;;;;;;5.07;2.23;;;;;;;;;;4950192;28;20446;-69
2022/10/07 10:15:52;;;;;;;3.33;2.10;;;;;;;;;;4949951;28;20573;-69
2022/10/07 10:18:36;;;;;;;2.70;2.07;;;;;;;;;;4948951;28;20470;-69
2022/10/07 10:21:18;;;;;;;3.90;2.73;;;;;;;;;;4950851;28;20437;-71
2022/10/07 10:23:46;;;;;;;4.20;3.33;;;;;;;;;;4950212;28;20442;-68
2022/10/07 10:26:27;;;;;;;5.10;3.70;;;;;;;;;;4951249;28;20446;-69
2022/10/07 10:29:01;;;;;;;2.80;2.57;;;;;;;;;;4950151;28;20517;-68
2022/10/07 10:31:35;;;;;;;2.73;2.43;;;;;;;;;;4950883;28;20438;-68
2022/10/07 10:34:20;;;;;;;5.00;1.97;;;;;;;;;;4950857;28;20439;-68
2022/10/07 10:36:51;;;;;;;7.83;2.60;;;;;;;;;;4950687;28;20458;-69
2022/10/07 10:39:39;;;;;;;5.93;2.50;;;;;;;;;;4950486;28;20439;-69
2022/10/07 10:42:08;;;;;;;14.43;3.00;;;;;;;;;;4951072;28;20983;-70
2022/10/07 10:44:37;;;;;;;4.00;2.70;;;;;;;;;;4949452;28;20450;-69
2022/10/07 10:47:21;;;;;;;4.07;2.83;;;;;;;;;;4954434;28;20466;-69
2022/10/07 10:49:47;;;;;;;2.90;2.70;;;;;;;;;;4954924;28;21049;-68
2022/10/07 10:52:43;;;;;;;3.27;2.00;;;;;;;;;;4953965;28;20526;-69
2022/10/07 10:55:11;;;;;;;9.80;2.33;;;;;;;;;;4939912;28;20447;-70
2022/10/07 10:58:01;;;;;;;3.53;2.70;;;;;;;;;;4954344;28;20446;-69
2022/10/07 11:00:32;;;;;;;3.63;3.20;;;;;;;;;;4953661;28;21031;-68
2022/10/07 11:03:18;;;;;;;3.90;3.33;;;;;;;;;;4954088;28;20435;-68
2022/10/07 11:05:45;;;;;;;2.60;2.43;;;;;;;;;;4954185;28;20824;-69
2022/10/07 11:08:16;;;;;;;7.90;4.33;;;;;;;;;;4953057;28;20436;-68
2022/10/07 11:10:52;;;;;;;3.17;2.60;;;;;;;;;;4953791;28;20944;-69
2022/10/07 11:13:26;;;;;;;3.03;2.53;;;;;;;;;;4953347;28;20427;-67
2022/10/07 11:15:55;;;;;;;2.90;2.70;;;;;;;;;;4953888;28;20447;-69
2022/10/07 11:18:27;;;;;;;6.33;3.60;;;;;;;;;;4954107;28;20434;-69
2022/10/07 11:20:53;;;;;;;4.93;2.70;;;;;;;;;;4952712;28;20474;-69
2022/10/07 11:23:25;;;;;;;2.33;2.27;;;;;;;;;;4952878;28;20438;-70
2022/10/07 11:25:51;;;;;;;2.67;2.57;;;;;;;;;;4952049;28;20611;-69
2022/10/07 11:28:21;;;;;;;3.90;2.60;;;;;;;;;;4949049;28;20478;-69
2022/10/07 11:31:08;;;;;;;3.27;2.60;;;;;;;;;;4951872;28;20442;-68
2022/10/07 11:33:43;;;;;;;5.33;3.17;;;;;;;;;;4946339;28;20927;-69
2022/10/07 11:36:13;;;;;;;8.53;3.40;;;;;;;;;;4953133;28;21258;-69
2022/10/07 11:38:40;;;;;;;4.40;2.67;;;;;;;;;;4952419;28;20482;-69
2022/10/07 11:41:19;;;;;;;6.10;2.77;;;;;;;;;;4952728;28;20427;-69
2022/10/07 11:43:47;;;;;;;1.87;1.77;;;;;;;;;;4951431;28;20453;-68
2022/10/07 11:46:19;;;;;;;14.43;3.23;;;;;;;;;;4951939;28;20443;-68
2022/10/07 11:48:54;;;;;;;6.13;2.90;;;;;;;;;;4951840;28;21137;-68
2022/10/07 11:51:22;;;;;;;6.20;2.57;;;;;;;;;;4952640;28;20418;-68
2022/10/07 11:53:48;;;;;;;5.50;2.30;;;;;;;;;;4951549;28;20939;-68
2022/10/07 11:56:16;;;;;;;4.87;3.00;;;;;;;;;;4952128;28;20471;-68
2022/10/07 11:58:43;;;;;;;3.00;2.80;;;;;;;;;;4952054;28;20520;-68
2022/10/07 12:01:24;;;;;;;7.30;4.70;;;;;;;;;;4952259;28;20439;-69
2022/10/07 12:03:51;;;;;;;8.60;3.50;;;;;;;;;;4952849;28;20437;-68
2022/10/07 12:06:17;;;;;;;4.50;2.67;;;;;;;;;;4951591;28;20502;-69
2022/10/07 12:08:43;;;;;;;3.17;2.53;;;;;;;;;;4951200;28;20557;-68
2022/10/07 12:11:14;;;;;;;3.00;2.43;;;;;;;;;;4952839;28;20509;-68
2022/10/07 12:13:47;;;;;;;5.00;2.60;;;;;;;;;;4952330;28;20526;-69
2022/10/07 12:16:31;;;;;;;4.00;2.03;;;;;;;;;;4953070;28;20498;-69
2022/10/07 12:19:12;;;;;;;3.13;2.80;;;;;;;;;;4951800;28;20422;-69
2022/10/07 12:21:59;;;;;;;3.10;3.00;;;;;;;;;;4952862;28;20461;-69
2022/10/07 12:24:29;;;;;;;4.70;2.00;;;;;;;;;;4952462;28;20423;-69
2022/10/07 12:26:56;;;;;;;11.87;3.90;;;;;;;;;;4952499;28;20518;-68
2022/10/07 12:29:23;;;;;;;22.10;3.80;;;;;;;;;;4949755;28;20482;-70
2022/10/07 12:31:49;;;;;;;5.70;3.17;;;;;;;;;;4950705;28;20971;-69
2022/10/07 12:34:26;;;;;;;4.00;3.70;;;;;;;;;;4952532;28;20430;-69
2022/10/07 12:36:52;;;;;;;3.17;3.07;;;;;;;;;;4952159;28;20466;-69
2022/10/07 12:39:22;;;;;;;9.20;3.57;;;;;;;;;;4948952;28;20846;-68
2022/10/07 12:41:48;;;;;;;4.10;3.50;;;;;;;;;;4952191;28;21006;-69
2022/10/07 12:44:20;;;;;;;18.67;4.77;;;;;;;;;;4950509;28;20493;-68
2022/10/07 12:46:49;;;;;;;7.20;2.90;;;;;;;;;;4951255;28;20439;-68
2022/10/07 12:49:37;;;;;;;4.07;3.30;;;;;;;;;;4951046;28;20498;-68
2022/10/07 12:52:07;;;;;;;7.13;4.33;;;;;;;;;;4951239;28;20438;-69
2022/10/07 12:54:36;;;;;;;3.67;3.37;;;;;;;;;;4950199;28;20446;-70
2022/10/07 12:57:03;;;;;;;4.33;3.90;;;;;;;;;;4950999;28;20427;-68
2022/10/07 12:59:48;;;;;;;7.03;4.80;;;;;;;;;;4949354;28;20529;-72
2022/10/07 13:02:33;;;;;;;3.27;1.80;;;;;;;;;;4950953;28;20435;-67
2022/10/07 13:05:17;;;;;;;5.30;4.27;;;;;;;;;;4952078;28;20887;-68
2022/10/07 13:08:01;;;;;;;3.90;3.50;;;;;;;;;;4951149;28;20926;-68
2022/10/07 13:10:46;;;;;;;7.37;3.10;;;;;;;;;;4949936;28;20501;-68
2022/10/07 13:13:16;;;;;;;6.97;3.50;;;;;;;;;;4950300;28;20434;-68
2022/10/07 13:15:49;;;;;;;14.73;2.97;;;;;;;;;;4951235;28;20446;-67
2022/10/07 13:18:30;;;;;;;11.40;3.70;;;;;;;;;;4950539;28;20434;-68
2022/10/07 13:21:22;;;;;;;12.70;3.27;;;;;;;;;;4950687;28;21022;-69
2022/10/07 13:23:53;;;;;;;3.60;3.30;;;;;;;;;;4947814;28;20538;-68
2022/10/07 13:26:20;;;;;;;2.93;2.60;;;;;;;;;;4951079;28;20430;-70
2022/10/07 13:28:48;;;;;;;2.70;2.50;;;;;;;;;;4950817;28;20602;-69
2022/10/07 13:31:22;;;;;;;8.70;3.57;;;;;;;;;;4950668;28;20431;-68
2022/10/07 13:33:48;;;;;;;4.90;3.50;;;;;;;;;;4949883;28;20600;-69
2022/10/07 13:36:16;;;;;;;9.17;4.13;;;;;;;;;;4950210;28;20437;-69
2022/10/07 13:38:43;;;;;;;6.30;3.40;;;;;;;;;;4949848;28;20832;-71
2022/10/07 13:41:18;;;;;;;9.57;3.03;;;;;;;;;;4950553;28;20525;-69
2022/10/07 13:43:45;;;;;;;2.57;2.20;;;;;;;;;;4949361;28;20496;-71
2022/10/07 13:46:13;;;;;;;2.73;2.53;;;;;;;;;;4950278;28;20966;-72
2022/10/07 13:48:42;;;;;;;4.70;3.10;;;;;;;;;;4950589;28;20466;-71
2022/10/07 13:51:13;;;;;;;4.00;2.87;;;;;;;;;;4950136;28;20503;-69
2022/10/07 13:53:40;;;;;;;2.70;2.60;;;;;;;;;;4950925;28;20482;-69
2022/10/07 13:56:20;;;;;;;3.83;3.63;;;;;;;;;;4951449;28;20431;-68
2022/10/07 13:58:46;;;;;;;5.50;2.80;;;;;;;;;;4950412;28;20525;-69
2022/10/07 14:01:13;;;;;;;5.63;3.33;;;;;;;;;;4950980;28;20505;-69
2022/10/07 14:03:58;;;;;;;5.50;3.97;;;;;;;;;;4948923;28;20471;-68
2022/10/07 14:06:44;;;;;;;5.53;2.40;;;;;;;;;;4951213;28;20442;-69
2022/10/07 14:09:17;;;;;;;16.73;3.70;;;;;;;;;;4950571;28;20470;-68
2022/10/07 14:11:43;;;;;;;10.23;2.97;;;;;;;;;;4951074;28;20501;-68
2022/10/07 14:14:27;;;;;;;8.50;2.67;;;;;;;;;;4950501;28;20423;-69
2022/10/07 14:16:57;;;;;;;7.23;2.90;;;;;;;;;;4949277;28;20453;-68
2022/10/07 14:19:24;;;;;;;9.77;3.00;;;;;;;;;;4950882;28;20442;-68
2022/10/07 14:21:50;;;;;;;6.10;2.60;;;;;;;;;;4954946;28;20434;-68
2022/10/07 14:24:19;;;;;;;6.50;3.10;;;;;;;;;;4953866;28;20462;-69
2022/10/07 14:26:45;;;;;;;7.50;3.40;;;;;;;;;;4954362;28;20431;-69
2022/10/07 14:29:41;;;;;;;5.77;3.23;;;;;;;;;;4952170;28;20577;-69
2022/10/07 14:37:41;;;;;;;6.63;3.60;;;;;;;;;;4954696;28;20469;-68
2022/10/07 14:40:17;;;;;;;3.27;3.07;;;;;;;;;;4954147;28;20790;-69
2022/10/07 14:42:44;;;;;;;16.43;3.97;;;;;;;;;;4953671;28;20435;-70
2022/10/07 14:45:15;;;;;;;4.90;3.13;;;;;;;;;;4954448;28;20522;-70
2022/10/07 14:47:43;;;;;;;4.83;2.70;;;;;;;;;;4952227;28;20439;-69
2022/10/07 14:50:10;;;;;;;4.67;2.73;;;;;;;;;;4951682;28;20617;-69
2022/10/07 14:52:45;;;;;;;1.73;1.73;;;;;;;;;;4954494;28;20430;-68
2022/10/07 14:55:15;;;;;;;7.63;2.40;;;;;;;;;;4954125;28;20452;-68
2022/10/07 14:57:42;;;;;;;2.33;2.13;;;;;;;;;;4953627;28;20439;-69
2022/10/07 15:00:16;;;;;;;3.40;3.10;;;;;;;;;;4953573;28;20438;-69
2022/10/07 15:02:42;;;;;;;2.90;2.30;;;;;;;;;;4952713;28;20460;-68
2022/10/07 15:05:08;;;;;;;3.53;3.13;;;;;;;;;;4953736;28;20457;-69
2022/10/07 15:07:34;;;;;;;2.80;1.63;;;;;;;;;;4954138;28;20816;-69
2022/10/07 15:10:00;;;;;;;1.80;1.70;;;;;;;;;;4953279;28;20494;-68